sensor_id;sensor_type;location;lat;lon;timestamp;temperature;humidity
31527;DHT22;18136;42.236;-73.040;2023-08-30T00:00:58;19.70;99.90
31527;DHT22;18136;42.236;-73.040;2023-08-30T00:03:24;19.70;99.90
31527;DHT22;18136;42.236;-73.040;2023-08-30T00:05:50;19.70;99.90
31527;DHT22;18136;42.236;-73.040;2023-08-30T00:08:16;19.70;99.90
31527;DHT22;18136;42.236;-73.040;2023-08-30T00:10:46;19.70;99.90
31527;DHT22;18136;42.236;-73.040;2023-08-30T00:13:12;19.60;99.90
31527;DHT22;18136;42.236;-73.040;2023-08-30T00:15:38;19.60;99.90
31527;DHT22;18136;42.236;-73.040;2023-08-30T00:18:05;19.60;99.90
31527;DHT22;18136;42.236;-73.040;2023-08-30T00:20:31;19.60;99.90
31527;DHT22;18136;42.236;-73.040;2023-08-30T00:22:58;19.60;99.90
31527;DHT22;18136;42.236;-73.040;2023-08-30T00:25:24;19.60;99.90
31527;DHT22;18136;42.236;-73.040;2023-08-30T00:27:50;19.60;99.90
31527;DHT22;18136;42.236;-73.040;2023-08-30T00:30:16;19.60;99.90
31527;DHT22;18136;42.236;-73.040;2023-08-30T00:32:42;19.60;99.90
31527;DHT22;18136;42.236;-73.040;2023-08-30T00:35:08;19.60;99.90
31527;DHT22;18136;42.236;-73.040;2023-08-30T00:37:34;19.60;99.90
31527;DHT22;18136;42.236;-73.040;2023-08-30T00:40:00;19.70;99.90
31527;DHT22;18136;42.236;-73.040;2023-08-30T00:42:27;19.60;99.90
31527;DHT22;18136;42.236;-73.040;2023-08-30T00:44:53;19.70;99.90
31527;DHT22;18136;42.236;-73.040;2023-08-30T00:47:19;19.70;99.90
31527;DHT22;18136;42.236;-73.040;2023-08-30T00:49:47;19.70;99.90
31527;DHT22;18136;42.236;-73.040;2023-08-30T00:52:13;19.70;99.90
31527;DHT22;18136;42.236;-73.040;2023-08-30T00:54:39;19.70;99.90
31527;DHT22;18136;42.236;-73.040;2023-08-30T00:57:06;19.70;99.90
31527;DHT22;18136;42.236;-73.040;2023-08-30T00:59:33;19.70;99.90
31527;DHT22;18136;42.236;-73.040;2023-08-30T01:02:00;19.70;99.90
31527;DHT22;18136;42.236;-73.040;2023-08-30T01:04:29;19.70;99.90
31527;DHT22;18136;42.236;-73.040;2023-08-30T01:06:55;19.70;99.90
31527;DHT22;18136;42.236;-73.040;2023-08-30T01:09:22;19.70;99.90
31527;DHT22;18136;42.236;-73.040;2023-08-30T01:12:06;19.70;99.90
31527;DHT22;18136;42.236;-73.040;2023-08-30T01:14:45;19.70;99.90
31527;DHT22;18136;42.236;-73.040;2023-08-30T01:17:19;19.70;99.90
31527;DHT22;18136;42.236;-73.040;2023-08-30T01:19:51;19.60;99.90
31527;DHT22;18136;42.236;-73.040;2023-08-30T01:22:59;19.60;99.90
31527;DHT22;18136;42.236;-73.040;2023-08-30T01:28:24;19.60;99.90
31527;DHT22;18136;42.236;-73.040;2023-08-30T01:30:53;19.60;99.90
31527;DHT22;18136;42.236;-73.040;2023-08-30T01:33:21;19.60;99.90
31527;DHT22;18136;42.236;-73.040;2023-08-30T01:35:47;19.60;99.90
31527;DHT22;18136;42.236;-73.040;2023-08-30T01:38:14;19.60;99.90
31527;DHT22;18136;42.236;-73.040;2023-08-30T01:40:42;19.60;99.90
31527;DHT22;18136;42.236;-73.040;2023-08-30T01:43:09;19.60;99.90
31527;DHT22;18136;42.236;-73.040;2023-08-30T01:45:41;19.60;99.90
31527;DHT22;18136;42.236;-73.040;2023-08-30T01:48:13;19.60;99.90
31527;DHT22;18136;42.236;-73.040;2023-08-30T01:50:41;19.50;99.90
31527;DHT22;18136;42.236;-73.040;2023-08-30T01:53:11;19.50;99.90
31527;DHT22;18136;42.236;-73.040;2023-08-30T01:55:38;19.50;99.90
31527;DHT22;18136;42.236;-73.040;2023-08-30T01:58:06;19.50;99.90
31527;DHT22;18136;42.236;-73.040;2023-08-30T02:00:32;19.50;99.90
31527;DHT22;18136;42.236;-73.040;2023-08-30T02:02:58;19.50;99.90
31527;DHT22;18136;42.236;-73.040;2023-08-30T02:05:24;19.50;99.90
31527;DHT22;18136;42.236;-73.040;2023-08-30T02:07:57;19.40;99.90
31527;DHT22;18136;42.236;-73.040;2023-08-30T02:10:34;19.40;99.90
31527;DHT22;18136;42.236;-73.040;2023-08-30T02:13:03;19.40;99.90
31527;DHT22;18136;42.236;-73.040;2023-08-30T02:15:31;19.40;99.90
31527;DHT22;18136;42.236;-73.040;2023-08-30T02:17:59;19.40;99.90
31527;DHT22;18136;42.236;-73.040;2023-08-30T02:20:26;19.40;99.90
31527;DHT22;18136;42.236;-73.040;2023-08-30T02:22:52;19.40;99.90
31527;DHT22;18136;42.236;-73.040;2023-08-30T02:25:18;19.40;99.90
31527;DHT22;18136;42.236;-73.040;2023-08-30T02:27:49;19.40;99.90
31527;DHT22;18136;42.236;-73.040;2023-08-30T02:30:18;19.40;99.90
31527;DHT22;18136;42.236;-73.040;2023-08-30T02:32:44;19.40;99.90
31527;DHT22;18136;42.236;-73.040;2023-08-30T02:35:10;19.40;99.90
31527;DHT22;18136;42.236;-73.040;2023-08-30T02:37:36;19.40;99.90
31527;DHT22;18136;42.236;-73.040;2023-08-30T02:40:02;19.40;99.90
31527;DHT22;18136;42.236;-73.040;2023-08-30T02:42:29;19.40;99.90
31527;DHT22;18136;42.236;-73.040;2023-08-30T02:44:55;19.40;99.90
31527;DHT22;18136;42.236;-73.040;2023-08-30T02:47:21;19.40;99.90
31527;DHT22;18136;42.236;-73.040;2023-08-30T02:49:47;19.40;99.90
31527;DHT22;18136;42.236;-73.040;2023-08-30T02:52:16;19.40;99.90
31527;DHT22;18136;42.236;-73.040;2023-08-30T02:54:42;19.40;99.90
31527;DHT22;18136;42.236;-73.040;2023-08-30T02:57:08;19.40;99.90
31527;DHT22;18136;42.236;-73.040;2023-08-30T02:59:34;19.40;99.90
31527;DHT22;18136;42.236;-73.040;2023-08-30T03:02:01;19.40;99.90
31527;DHT22;18136;42.236;-73.040;2023-08-30T03:04:28;19.40;99.90
31527;DHT22;18136;42.236;-73.040;2023-08-30T03:06:54;19.40;99.90
31527;DHT22;18136;42.236;-73.040;2023-08-30T03:09:20;19.40;99.90
31527;DHT22;18136;42.236;-73.040;2023-08-30T03:11:46;19.40;99.90
31527;DHT22;18136;42.236;-73.040;2023-08-30T03:14:12;19.40;99.90
31527;DHT22;18136;42.236;-73.040;2023-08-30T03:16:39;19.40;99.90
31527;DHT22;18136;42.236;-73.040;2023-08-30T03:19:08;19.40;99.90
31527;DHT22;18136;42.236;-73.040;2023-08-30T03:21:34;19.40;99.90
31527;DHT22;18136;42.236;-73.040;2023-08-30T03:24:00;19.40;99.90
31527;DHT22;18136;42.236;-73.040;2023-08-30T03:26:26;19.40;99.90
31527;DHT22;18136;42.236;-73.040;2023-08-30T03:28:52;19.30;99.90
31527;DHT22;18136;42.236;-73.040;2023-08-30T03:31:20;19.30;99.90
31527;DHT22;18136;42.236;-73.040;2023-08-30T03:33:47;19.30;99.90
31527;DHT22;18136;42.236;-73.040;2023-08-30T03:36:16;19.30;99.90
31527;DHT22;18136;42.236;-73.040;2023-08-30T03:38:43;19.30;99.90
31527;DHT22;18136;42.236;-73.040;2023-08-30T03:41:14;19.30;99.90
31527;DHT22;18136;42.236;-73.040;2023-08-30T03:43:41;19.30;99.90
31527;DHT22;18136;42.236;-73.040;2023-08-30T03:46:07;19.30;99.90
31527;DHT22;18136;42.236;-73.040;2023-08-30T03:48:34;19.30;99.90
31527;DHT22;18136;42.236;-73.040;2023-08-30T03:51:01;19.30;99.90
31527;DHT22;18136;42.236;-73.040;2023-08-30T03:53:27;19.30;99.90
31527;DHT22;18136;42.236;-73.040;2023-08-30T03:55:53;19.30;99.90
31527;DHT22;18136;42.236;-73.040;2023-08-30T03:58:19;19.30;99.90
31527;DHT22;18136;42.236;-73.040;2023-08-30T04:00:46;19.30;99.90
31527;DHT22;18136;42.236;-73.040;2023-08-30T04:03:14;19.20;99.90
31527;DHT22;18136;42.236;-73.040;2023-08-30T04:05:41;19.20;99.90
31527;DHT22;18136;42.236;-73.040;2023-08-30T04:08:08;19.20;99.90
31527;DHT22;18136;42.236;-73.040;2023-08-30T04:10:41;19.20;99.90
31527;DHT22;18136;42.236;-73.040;2023-08-30T04:13:08;19.20;99.90
31527;DHT22;18136;42.236;-73.040;2023-08-30T04:15:35;19.20;99.90
31527;DHT22;18136;42.236;-73.040;2023-08-30T04:18:02;19.20;99.90
31527;DHT22;18136;42.236;-73.040;2023-08-30T04:20:29;19.20;99.90
31527;DHT22;18136;42.236;-73.040;2023-08-30T04:22:55;19.10;99.90
31527;DHT22;18136;42.236;-73.040;2023-08-30T04:25:23;19.10;99.90
31527;DHT22;18136;42.236;-73.040;2023-08-30T04:27:49;19.20;99.90
31527;DHT22;18136;42.236;-73.040;2023-08-30T04:30:16;19.10;99.90
31527;DHT22;18136;42.236;-73.040;2023-08-30T04:32:42;19.10;99.90
31527;DHT22;18136;42.236;-73.040;2023-08-30T04:35:08;19.10;99.90
31527;DHT22;18136;42.236;-73.040;2023-08-30T04:37:35;19.10;99.90
31527;DHT22;18136;42.236;-73.040;2023-08-30T04:40:02;19.10;99.90
31527;DHT22;18136;42.236;-73.040;2023-08-30T04:42:29;19.10;99.90
31527;DHT22;18136;42.236;-73.040;2023-08-30T04:44:55;19.10;99.90
31527;DHT22;18136;42.236;-73.040;2023-08-30T04:47:22;19.10;99.90
31527;DHT22;18136;42.236;-73.040;2023-08-30T04:49:51;19.10;99.90
31527;DHT22;18136;42.236;-73.040;2023-08-30T04:52:17;19.10;99.90
31527;DHT22;18136;42.236;-73.040;2023-08-30T04:54:43;19.10;99.90
31527;DHT22;18136;42.236;-73.040;2023-08-30T04:57:12;19.10;99.90
31527;DHT22;18136;42.236;-73.040;2023-08-30T04:59:42;19.10;99.90
31527;DHT22;18136;42.236;-73.040;2023-08-30T05:02:09;19.00;99.90
31527;DHT22;18136;42.236;-73.040;2023-08-30T05:04:35;19.00;99.90
31527;DHT22;18136;42.236;-73.040;2023-08-30T05:07:01;19.00;99.90
31527;DHT22;18136;42.236;-73.040;2023-08-30T05:09:32;19.00;99.90
31527;DHT22;18136;42.236;-73.040;2023-08-30T05:11:59;19.00;99.90
31527;DHT22;18136;42.236;-73.040;2023-08-30T05:14:26;19.00;99.90
31527;DHT22;18136;42.236;-73.040;2023-08-30T05:16:52;19.00;99.90
31527;DHT22;18136;42.236;-73.040;2023-08-30T05:19:18;19.00;99.90
31527;DHT22;18136;42.236;-73.040;2023-08-30T05:21:45;19.00;99.90
31527;DHT22;18136;42.236;-73.040;2023-08-30T05:24:11;18.90;99.90
31527;DHT22;18136;42.236;-73.040;2023-08-30T05:26:37;18.90;99.90
31527;DHT22;18136;42.236;-73.040;2023-08-30T05:29:04;18.90;99.90
31527;DHT22;18136;42.236;-73.040;2023-08-30T05:31:30;18.90;99.90
31527;DHT22;18136;42.236;-73.040;2023-08-30T05:33:56;18.90;99.90
31527;DHT22;18136;42.236;-73.040;2023-08-30T05:36:22;18.90;99.90
31527;DHT22;18136;42.236;-73.040;2023-08-30T05:38:48;18.90;99.90
31527;DHT22;18136;42.236;-73.040;2023-08-30T05:41:14;18.80;99.90
31527;DHT22;18136;42.236;-73.040;2023-08-30T05:43:40;18.90;99.90
31527;DHT22;18136;42.236;-73.040;2023-08-30T05:46:06;18.90;99.90
31527;DHT22;18136;42.236;-73.040;2023-08-30T05:48:38;18.90;99.90
31527;DHT22;18136;42.236;-73.040;2023-08-30T05:51:04;18.80;99.90
31527;DHT22;18136;42.236;-73.040;2023-08-30T05:53:30;18.90;99.90
31527;DHT22;18136;42.236;-73.040;2023-08-30T05:55:56;18.90;99.90
31527;DHT22;18136;42.236;-73.040;2023-08-30T05:58:22;18.80;99.90
31527;DHT22;18136;42.236;-73.040;2023-08-30T06:00:48;18.90;99.90
31527;DHT22;18136;42.236;-73.040;2023-08-30T06:03:14;18.80;99.90
31527;DHT22;18136;42.236;-73.040;2023-08-30T06:05:40;18.80;99.90
31527;DHT22;18136;42.236;-73.040;2023-08-30T06:08:06;18.80;99.90
31527;DHT22;18136;42.236;-73.040;2023-08-30T06:10:33;18.80;99.90
31527;DHT22;18136;42.236;-73.040;2023-08-30T06:12:59;18.90;99.90
31527;DHT22;18136;42.236;-73.040;2023-08-30T06:15:27;18.80;99.90
31527;DHT22;18136;42.236;-73.040;2023-08-30T06:17:53;18.80;99.90
31527;DHT22;18136;42.236;-73.040;2023-08-30T06:20:19;18.80;99.90
31527;DHT22;18136;42.236;-73.040;2023-08-30T06:22:45;18.80;99.90
31527;DHT22;18136;42.236;-73.040;2023-08-30T06:25:11;18.80;99.90
31527;DHT22;18136;42.236;-73.040;2023-08-30T06:27:57;18.80;99.90
31527;DHT22;18136;42.236;-73.040;2023-08-30T06:30:23;18.80;99.90
31527;DHT22;18136;42.236;-73.040;2023-08-30T06:32:49;18.80;99.90
31527;DHT22;18136;42.236;-73.040;2023-08-30T06:35:15;18.80;99.90
31527;DHT22;18136;42.236;-73.040;2023-08-30T06:37:41;18.70;99.90
31527;DHT22;18136;42.236;-73.040;2023-08-30T06:40:08;18.80;99.90
31527;DHT22;18136;42.236;-73.040;2023-08-30T06:42:34;18.80;99.90
31527;DHT22;18136;42.236;-73.040;2023-08-30T06:45:01;18.80;99.90
31527;DHT22;18136;42.236;-73.040;2023-08-30T06:47:28;18.70;99.90
31527;DHT22;18136;42.236;-73.040;2023-08-30T06:49:54;18.80;99.90
31527;DHT22;18136;42.236;-73.040;2023-08-30T06:52:20;18.80;99.90
31527;DHT22;18136;42.236;-73.040;2023-08-30T06:54:46;18.80;99.90
31527;DHT22;18136;42.236;-73.040;2023-08-30T06:57:12;18.70;99.90
31527;DHT22;18136;42.236;-73.040;2023-08-30T06:59:38;18.80;99.90
31527;DHT22;18136;42.236;-73.040;2023-08-30T07:02:05;18.70;99.90
31527;DHT22;18136;42.236;-73.040;2023-08-30T07:04:31;18.70;99.90
31527;DHT22;18136;42.236;-73.040;2023-08-30T07:06:57;18.70;99.90
31527;DHT22;18136;42.236;-73.040;2023-08-30T07:09:23;18.70;99.90
31527;DHT22;18136;42.236;-73.040;2023-08-30T07:11:55;18.70;99.90
31527;DHT22;18136;42.236;-73.040;2023-08-30T07:14:21;18.70;99.90
31527;DHT22;18136;42.236;-73.040;2023-08-30T07:16:47;18.70;99.90
31527;DHT22;18136;42.236;-73.040;2023-08-30T07:19:19;18.70;99.90
31527;DHT22;18136;42.236;-73.040;2023-08-30T07:21:45;18.70;99.90
31527;DHT22;18136;42.236;-73.040;2023-08-30T07:24:11;18.70;99.90
31527;DHT22;18136;42.236;-73.040;2023-08-30T07:26:38;18.70;99.90
31527;DHT22;18136;42.236;-73.040;2023-08-30T07:29:04;18.70;99.90
31527;DHT22;18136;42.236;-73.040;2023-08-30T07:31:33;18.70;99.90
31527;DHT22;18136;42.236;-73.040;2023-08-30T07:33:59;18.70;99.90
31527;DHT22;18136;42.236;-73.040;2023-08-30T07:36:26;18.60;99.90
31527;DHT22;18136;42.236;-73.040;2023-08-30T07:38:53;18.70;99.90
31527;DHT22;18136;42.236;-73.040;2023-08-30T07:41:20;18.70;99.90
31527;DHT22;18136;42.236;-73.040;2023-08-30T07:43:46;18.70;99.90
31527;DHT22;18136;42.236;-73.040;2023-08-30T07:46:12;18.70;99.90
31527;DHT22;18136;42.236;-73.040;2023-08-30T07:48:38;18.70;99.90
31527;DHT22;18136;42.236;-73.040;2023-08-30T07:51:04;18.70;99.90
31527;DHT22;18136;42.236;-73.040;2023-08-30T07:53:30;18.60;99.90
31527;DHT22;18136;42.236;-73.040;2023-08-30T07:55:56;18.60;99.90
31527;DHT22;18136;42.236;-73.040;2023-08-30T07:58:22;18.70;99.90
31527;DHT22;18136;42.236;-73.040;2023-08-30T08:00:55;18.60;99.90
31527;DHT22;18136;42.236;-73.040;2023-08-30T08:03:21;18.60;99.90
31527;DHT22;18136;42.236;-73.040;2023-08-30T08:05:47;18.60;99.90
31527;DHT22;18136;42.236;-73.040;2023-08-30T08:08:14;18.60;99.90
31527;DHT22;18136;42.236;-73.040;2023-08-30T08:10:42;18.60;99.90
31527;DHT22;18136;42.236;-73.040;2023-08-30T08:13:08;18.60;99.90
31527;DHT22;18136;42.236;-73.040;2023-08-30T08:15:34;18.60;99.90
31527;DHT22;18136;42.236;-73.040;2023-08-30T08:18:01;18.60;99.90
31527;DHT22;18136;42.236;-73.040;2023-08-30T08:20:28;18.60;99.90
31527;DHT22;18136;42.236;-73.040;2023-08-30T08:22:54;18.60;99.90
31527;DHT22;18136;42.236;-73.040;2023-08-30T08:25:20;18.60;99.90
31527;DHT22;18136;42.236;-73.040;2023-08-30T08:27:48;18.50;99.90
31527;DHT22;18136;42.236;-73.040;2023-08-30T08:30:14;18.60;99.90
31527;DHT22;18136;42.236;-73.040;2023-08-30T08:32:40;18.60;99.90
31527;DHT22;18136;42.236;-73.040;2023-08-30T08:35:06;18.60;99.90
31527;DHT22;18136;42.236;-73.040;2023-08-30T08:37:32;18.60;99.90
31527;DHT22;18136;42.236;-73.040;2023-08-30T08:39:58;18.60;99.90
31527;DHT22;18136;42.236;-73.040;2023-08-30T08:42:27;18.50;99.90
31527;DHT22;18136;42.236;-73.040;2023-08-30T08:44:54;18.50;99.90
31527;DHT22;18136;42.236;-73.040;2023-08-30T08:47:22;18.50;99.90
31527;DHT22;18136;42.236;-73.040;2023-08-30T08:49:50;18.60;99.90
31527;DHT22;18136;42.236;-73.040;2023-08-30T08:52:16;18.50;99.90
31527;DHT22;18136;42.236;-73.040;2023-08-30T08:54:43;18.50;99.90
31527;DHT22;18136;42.236;-73.040;2023-08-30T08:57:09;18.50;99.90
31527;DHT22;18136;42.236;-73.040;2023-08-30T08:59:36;18.50;99.90
31527;DHT22;18136;42.236;-73.040;2023-08-30T09:02:02;18.60;99.90
31527;DHT22;18136;42.236;-73.040;2023-08-30T09:04:31;18.50;99.90
31527;DHT22;18136;42.236;-73.040;2023-08-30T09:06:58;18.50;99.90
31527;DHT22;18136;42.236;-73.040;2023-08-30T09:09:26;18.60;99.90
31527;DHT22;18136;42.236;-73.040;2023-08-30T09:11:52;18.50;99.90
31527;DHT22;18136;42.236;-73.040;2023-08-30T09:14:19;18.50;99.90
31527;DHT22;18136;42.236;-73.040;2023-08-30T09:16:58;18.50;99.90
31527;DHT22;18136;42.236;-73.040;2023-08-30T09:19:26;18.50;99.90
31527;DHT22;18136;42.236;-73.040;2023-08-30T09:21:53;18.50;99.90
31527;DHT22;18136;42.236;-73.040;2023-08-30T09:24:19;18.50;99.90
31527;DHT22;18136;42.236;-73.040;2023-08-30T09:26:50;18.40;99.90
31527;DHT22;18136;42.236;-73.040;2023-08-30T09:29:18;18.40;99.90
31527;DHT22;18136;42.236;-73.040;2023-08-30T09:31:45;18.40;99.90
31527;DHT22;18136;42.236;-73.040;2023-08-30T09:34:11;18.40;99.90
31527;DHT22;18136;42.236;-73.040;2023-08-30T09:36:39;18.50;99.90
31527;DHT22;18136;42.236;-73.040;2023-08-30T09:39:14;18.40;99.90
31527;DHT22;18136;42.236;-73.040;2023-08-30T09:41:41;18.50;99.90
31527;DHT22;18136;42.236;-73.040;2023-08-30T09:44:18;18.50;99.90
31527;DHT22;18136;42.236;-73.040;2023-08-30T09:46:54;18.40;99.90
31527;DHT22;18136;42.236;-73.040;2023-08-30T09:49:25;18.40;99.90
31527;DHT22;18136;42.236;-73.040;2023-08-30T09:51:53;18.40;99.90
31527;DHT22;18136;42.236;-73.040;2023-08-30T09:54:21;18.40;99.90
31527;DHT22;18136;42.236;-73.040;2023-08-30T09:56:47;18.40;99.90
31527;DHT22;18136;42.236;-73.040;2023-08-30T09:59:15;18.40;99.90
31527;DHT22;18136;42.236;-73.040;2023-08-30T10:01:46;18.40;99.90
31527;DHT22;18136;42.236;-73.040;2023-08-30T10:04:14;18.40;99.90
31527;DHT22;18136;42.236;-73.040;2023-08-30T10:06:40;18.30;99.90
31527;DHT22;18136;42.236;-73.040;2023-08-30T10:09:08;18.30;99.90
31527;DHT22;18136;42.236;-73.040;2023-08-30T10:11:36;18.40;99.90
31527;DHT22;18136;42.236;-73.040;2023-08-30T10:14:09;18.40;99.90
31527;DHT22;18136;42.236;-73.040;2023-08-30T10:16:42;18.40;99.90
31527;DHT22;18136;42.236;-73.040;2023-08-30T10:21:48;18.30;99.90
31527;DHT22;18136;42.236;-73.040;2023-08-30T10:24:19;18.30;99.90
31527;DHT22;18136;42.236;-73.040;2023-08-30T10:26:46;18.30;99.90
31527;DHT22;18136;42.236;-73.040;2023-08-30T10:29:14;18.30;99.90
31527;DHT22;18136;42.236;-73.040;2023-08-30T10:31:41;18.40;99.90
31527;DHT22;18136;42.236;-73.040;2023-08-30T10:34:15;18.30;99.90
31527;DHT22;18136;42.236;-73.040;2023-08-30T10:36:42;18.40;99.90
31527;DHT22;18136;42.236;-73.040;2023-08-30T10:39:13;18.40;99.90
31527;DHT22;18136;42.236;-73.040;2023-08-30T10:41:54;18.30;99.90
31527;DHT22;18136;42.236;-73.040;2023-08-30T10:44:22;18.30;99.90
31527;DHT22;18136;42.236;-73.040;2023-08-30T10:46:53;18.40;99.90
31527;DHT22;18136;42.236;-73.040;2023-08-30T10:49:20;18.30;99.90
31527;DHT22;18136;42.236;-73.040;2023-08-30T10:51:55;18.30;99.90
31527;DHT22;18136;42.236;-73.040;2023-08-30T10:54:22;18.30;99.90
31527;DHT22;18136;42.236;-73.040;2023-08-30T10:56:55;18.30;99.90
31527;DHT22;18136;42.236;-73.040;2023-08-30T10:59:23;18.30;99.90
31527;DHT22;18136;42.236;-73.040;2023-08-30T11:01:51;18.30;99.90
31527;DHT22;18136;42.236;-73.040;2023-08-30T11:04:18;18.30;99.90
31527;DHT22;18136;42.236;-73.040;2023-08-30T11:06:46;18.30;99.90
31527;DHT22;18136;42.236;-73.040;2023-08-30T11:09:14;18.30;99.90
31527;DHT22;18136;42.236;-73.040;2023-08-30T11:11:40;18.30;99.90
31527;DHT22;18136;42.236;-73.040;2023-08-30T11:14:07;18.30;99.90
31527;DHT22;18136;42.236;-73.040;2023-08-30T11:16:35;18.30;99.90
31527;DHT22;18136;42.236;-73.040;2023-08-30T11:19:02;18.30;99.90
31527;DHT22;18136;42.236;-73.040;2023-08-30T11:21:30;18.30;99.90
31527;DHT22;18136;42.236;-73.040;2023-08-30T11:23:57;18.20;99.90
31527;DHT22;18136;42.236;-73.040;2023-08-30T11:26:23;18.20;99.90
31527;DHT22;18136;42.236;-73.040;2023-08-30T11:28:49;18.30;99.90
31527;DHT22;18136;42.236;-73.040;2023-08-30T11:31:24;18.30;99.90
31527;DHT22;18136;42.236;-73.040;2023-08-30T11:33:54;18.30;99.90
31527;DHT22;18136;42.236;-73.040;2023-08-30T11:36:23;18.20;99.90
31527;DHT22;18136;42.236;-73.040;2023-08-30T11:38:50;18.20;99.90
31527;DHT22;18136;42.236;-73.040;2023-08-30T11:41:17;18.30;99.90
31527;DHT22;18136;42.236;-73.040;2023-08-30T11:43:46;18.30;99.90
31527;DHT22;18136;42.236;-73.040;2023-08-30T11:46:13;18.30;99.90
31527;DHT22;18136;42.236;-73.040;2023-08-30T11:48:40;18.30;99.90
31527;DHT22;18136;42.236;-73.040;2023-08-30T11:51:07;18.30;99.90
31527;DHT22;18136;42.236;-73.040;2023-08-30T11:53:34;18.30;99.90
31527;DHT22;18136;42.236;-73.040;2023-08-30T11:56:01;18.30;99.90
31527;DHT22;18136;42.236;-73.040;2023-08-30T11:58:27;18.30;99.90
31527;DHT22;18136;42.236;-73.040;2023-08-30T12:00:54;18.30;99.90
31527;DHT22;18136;42.236;-73.040;2023-08-30T12:03:20;18.30;99.90
31527;DHT22;18136;42.236;-73.040;2023-08-30T12:05:47;18.30;99.90
31527;DHT22;18136;42.236;-73.040;2023-08-30T12:08:20;18.20;99.90
31527;DHT22;18136;42.236;-73.040;2023-08-30T12:10:47;18.20;99.90
31527;DHT22;18136;42.236;-73.040;2023-08-30T12:13:48;18.20;99.90
31527;DHT22;18136;42.236;-73.040;2023-08-30T12:16:17;18.20;99.90
31527;DHT22;18136;42.236;-73.040;2023-08-30T12:18:43;18.10;99.90
31527;DHT22;18136;42.236;-73.040;2023-08-30T12:21:09;18.10;99.90
31527;DHT22;18136;42.236;-73.040;2023-08-30T12:23:36;18.00;99.90
31527;DHT22;18136;42.236;-73.040;2023-08-30T12:26:03;18.10;99.90
31527;DHT22;18136;42.236;-73.040;2023-08-30T12:28:34;18.00;99.90
31527;DHT22;18136;42.236;-73.040;2023-08-30T12:31:00;18.00;99.90
31527;DHT22;18136;42.236;-73.040;2023-08-30T12:33:27;18.00;99.90
31527;DHT22;18136;42.236;-73.040;2023-08-30T12:35:56;18.00;99.90
31527;DHT22;18136;42.236;-73.040;2023-08-30T12:38:23;18.00;99.90
31527;DHT22;18136;42.236;-73.040;2023-08-30T12:40:52;18.00;99.90
31527;DHT22;18136;42.236;-73.040;2023-08-30T12:43:19;18.00;99.90
31527;DHT22;18136;42.236;-73.040;2023-08-30T12:45:48;18.00;99.90
31527;DHT22;18136;42.236;-73.040;2023-08-30T12:48:16;18.00;99.90
31527;DHT22;18136;42.236;-73.040;2023-08-30T12:50:47;18.00;99.90
31527;DHT22;18136;42.236;-73.040;2023-08-30T12:53:14;18.00;99.90
31527;DHT22;18136;42.236;-73.040;2023-08-30T12:55:43;18.00;99.90
31527;DHT22;18136;42.236;-73.040;2023-08-30T12:58:10;18.00;99.90
31527;DHT22;18136;42.236;-73.040;2023-08-30T13:00:37;18.00;99.90
31527;DHT22;18136;42.236;-73.040;2023-08-30T13:03:03;17.90;99.90
31527;DHT22;18136;42.236;-73.040;2023-08-30T13:05:29;18.00;99.90
31527;DHT22;18136;42.236;-73.040;2023-08-30T13:07:59;18.00;99.90
31527;DHT22;18136;42.236;-73.040;2023-08-30T13:10:26;18.00;99.90
31527;DHT22;18136;42.236;-73.040;2023-08-30T13:12:52;18.00;99.90
31527;DHT22;18136;42.236;-73.040;2023-08-30T13:15:18;18.10;99.90
31527;DHT22;18136;42.236;-73.040;2023-08-30T13:17:44;18.10;99.90
31527;DHT22;18136;42.236;-73.040;2023-08-30T13:20:10;18.20;99.90
31527;DHT22;18136;42.236;-73.040;2023-08-30T13:22:36;18.20;99.90
31527;DHT22;18136;42.236;-73.040;2023-08-30T13:25:03;18.20;99.90
31527;DHT22;18136;42.236;-73.040;2023-08-30T13:27:29;18.20;99.90
31527;DHT22;18136;42.236;-73.040;2023-08-30T13:29:56;18.30;99.90
31527;DHT22;18136;42.236;-73.040;2023-08-30T13:32:22;18.20;99.90
31527;DHT22;18136;42.236;-73.040;2023-08-30T13:34:49;18.20;99.90
31527;DHT22;18136;42.236;-73.040;2023-08-30T13:37:15;18.10;99.90
31527;DHT22;18136;42.236;-73.040;2023-08-30T13:39:41;18.20;99.90
31527;DHT22;18136;42.236;-73.040;2023-08-30T13:42:07;18.20;99.90
31527;DHT22;18136;42.236;-73.040;2023-08-30T13:44:33;18.20;99.90
31527;DHT22;18136;42.236;-73.040;2023-08-30T13:47:06;18.20;99.90
31527;DHT22;18136;42.236;-73.040;2023-08-30T13:49:32;18.20;99.90
31527;DHT22;18136;42.236;-73.040;2023-08-30T13:51:58;18.20;99.90
31527;DHT22;18136;42.236;-73.040;2023-08-30T13:54:25;18.20;99.90
31527;DHT22;18136;42.236;-73.040;2023-08-30T13:56:52;18.20;99.90
31527;DHT22;18136;42.236;-73.040;2023-08-30T13:59:18;18.20;99.90
31527;DHT22;18136;42.236;-73.040;2023-08-30T14:01:44;18.20;99.90
31527;DHT22;18136;42.236;-73.040;2023-08-30T14:04:10;18.20;99.90
31527;DHT22;18136;42.236;-73.040;2023-08-30T14:06:36;18.20;99.90
31527;DHT22;18136;42.236;-73.040;2023-08-30T14:09:02;18.20;99.90
31527;DHT22;18136;42.236;-73.040;2023-08-30T14:11:30;18.20;99.90
31527;DHT22;18136;42.236;-73.040;2023-08-30T14:13:56;18.20;99.90
31527;DHT22;18136;42.236;-73.040;2023-08-30T14:16:22;18.20;99.90
31527;DHT22;18136;42.236;-73.040;2023-08-30T14:18:49;18.20;99.90
31527;DHT22;18136;42.236;-73.040;2023-08-30T14:21:15;18.20;99.90
31527;DHT22;18136;42.236;-73.040;2023-08-30T14:23:42;18.30;99.90
31527;DHT22;18136;42.236;-73.040;2023-08-30T14:26:08;18.30;99.90
31527;DHT22;18136;42.236;-73.040;2023-08-30T14:28:41;18.30;99.90
31527;DHT22;18136;42.236;-73.040;2023-08-30T14:31:11;18.20;99.90
31527;DHT22;18136;42.236;-73.040;2023-08-30T14:33:37;18.30;99.90
31527;DHT22;18136;42.236;-73.040;2023-08-30T14:36:08;18.30;99.90
31527;DHT22;18136;42.236;-73.040;2023-08-30T14:38:36;18.30;99.90
31527;DHT22;18136;42.236;-73.040;2023-08-30T14:41:03;18.30;99.90
31527;DHT22;18136;42.236;-73.040;2023-08-30T14:43:29;18.30;99.90
31527;DHT22;18136;42.236;-73.040;2023-08-30T14:46:04;18.30;99.90
31527;DHT22;18136;42.236;-73.040;2023-08-30T14:48:31;18.30;99.90
31527;DHT22;18136;42.236;-73.040;2023-08-30T14:50:58;18.40;99.90
31527;DHT22;18136;42.236;-73.040;2023-08-30T14:53:25;18.40;99.90
31527;DHT22;18136;42.236;-73.040;2023-08-30T14:55:51;18.50;99.90
31527;DHT22;18136;42.236;-73.040;2023-08-30T14:58:17;18.60;99.90
31527;DHT22;18136;42.236;-73.040;2023-08-30T15:00:44;18.60;99.90
31527;DHT22;18136;42.236;-73.040;2023-08-30T15:03:12;18.70;99.90
31527;DHT22;18136;42.236;-73.040;2023-08-30T15:05:38;18.70;99.90
31527;DHT22;18136;42.236;-73.040;2023-08-30T15:08:05;18.70;99.90
31527;DHT22;18136;42.236;-73.040;2023-08-30T15:10:32;18.80;99.90